sensor_id;sensor_type;location;lat;lon;timestamp;P1;durP1;ratioP1;P2;durP2;ratioP2
19551;SDS011;9921;47.186;9.778;2023-10-09T00:01:01;0.00;;;0.00;;
19551;SDS011;9921;47.186;9.778;2023-10-09T00:03:30;0.00;;;0.00;;
19551;SDS011;9921;47.186;9.778;2023-10-09T00:05:57;0.00;;;0.00;;
19551;SDS011;9921;47.186;9.778;2023-10-09T00:08:26;0.00;;;0.00;;
19551;SDS011;9921;47.186;9.778;2023-10-09T00:10:57;0.00;;;0.00;;
19551;SDS011;9921;47.186;9.778;2023-10-09T00:13:38;0.00;;;0.00;;
19551;SDS011;9921;47.186;9.778;2023-10-09T00:16:14;0.00;;;0.00;;
19551;SDS011;9921;47.186;9.778;2023-10-09T00:18:48;0.00;;;0.00;;
19551;SDS011;9921;47.186;9.778;2023-10-09T00:21:15;0.00;;;0.00;;
19551;SDS011;9921;47.186;9.778;2023-10-09T00:23:45;0.00;;;0.00;;
19551;SDS011;9921;47.186;9.778;2023-10-09T00:26:19;0.00;;;0.00;;
19551;SDS011;9921;47.186;9.778;2023-10-09T00:28:46;0.00;;;0.00;;
19551;SDS011;9921;47.186;9.778;2023-10-09T00:31:16;0.00;;;0.00;;
19551;SDS011;9921;47.186;9.778;2023-10-09T00:33:51;0.00;;;0.00;;
19551;SDS011;9921;47.186;9.778;2023-10-09T00:36:20;0.00;;;0.00;;
19551;SDS011;9921;47.186;9.778;2023-10-09T00:38:53;0.00;;;0.00;;
19551;SDS011;9921;47.186;9.778;2023-10-09T00:41:21;0.00;;;0.00;;
19551;SDS011;9921;47.186;9.778;2023-10-09T00:43:50;0.00;;;0.00;;
19551;SDS011;9921;47.186;9.778;2023-10-09T00:46:18;0.00;;;0.00;;
19551;SDS011;9921;47.186;9.778;2023-10-09T00:48:56;0.00;;;0.00;;
19551;SDS011;9921;47.186;9.778;2023-10-09T00:51:26;0.00;;;0.00;;
19551;SDS011;9921;47.186;9.778;2023-10-09T00:53:57;0.00;;;0.00;;
19551;SDS011;9921;47.186;9.778;2023-10-09T00:56:33;0.00;;;0.00;;
19551;SDS011;9921;47.186;9.778;2023-10-09T00:59:09;0.00;;;0.00;;
19551;SDS011;9921;47.186;9.778;2023-10-09T01:01:40;0.00;;;0.00;;
19551;SDS011;9921;47.186;9.778;2023-10-09T01:04:13;0.00;;;0.00;;
19551;SDS011;9921;47.186;9.778;2023-10-09T01:06:43;0.00;;;0.00;;
19551;SDS011;9921;47.186;9.778;2023-10-09T01:09:18;0.00;;;0.00;;
19551;SDS011;9921;47.186;9.778;2023-10-09T01:11:49;0.00;;;0.00;;
19551;SDS011;9921;47.186;9.778;2023-10-09T01:14:29;0.00;;;0.00;;
19551;SDS011;9921;47.186;9.778;2023-10-09T01:16:56;0.00;;;0.00;;
19551;SDS011;9921;47.186;9.778;2023-10-09T01:19:25;0.00;;;0.00;;
19551;SDS011;9921;47.186;9.778;2023-10-09T01:21:53;0.00;;;0.00;;
19551;SDS011;9921;47.186;9.778;2023-10-09T01:24:21;0.00;;;0.00;;
19551;SDS011;9921;47.186;9.778;2023-10-09T01:26:51;0.00;;;0.00;;
19551;SDS011;9921;47.186;9.778;2023-10-09T01:29:20;0.00;;;0.00;;
19551;SDS011;9921;47.186;9.778;2023-10-09T01:31:48;0.00;;;0.00;;
19551;SDS011;9921;47.186;9.778;2023-10-09T01:34:20;0.00;;;0.00;;
19551;SDS011;9921;47.186;9.778;2023-10-09T01:36:49;0.00;;;0.00;;
19551;SDS011;9921;47.186;9.778;2023-10-09T01:39:21;0.00;;;0.00;;
19551;SDS011;9921;47.186;9.778;2023-10-09T01:41:51;0.00;;;0.00;;
19551;SDS011;9921;47.186;9.778;2023-10-09T01:44:24;0.00;;;0.00;;
19551;SDS011;9921;47.186;9.778;2023-10-09T01:46:52;0.00;;;0.00;;
19551;SDS011;9921;47.186;9.778;2023-10-09T01:49:22;0.00;;;0.00;;
19551;SDS011;9921;47.186;9.778;2023-10-09T01:51:55;0.00;;;0.00;;
19551;SDS011;9921;47.186;9.778;2023-10-09T01:54:26;0.00;;;0.00;;
19551;SDS011;9921;47.186;9.778;2023-10-09T01:57:03;0.00;;;0.00;;
19551;SDS011;9921;47.186;9.778;2023-10-09T01:59:34;0.00;;;0.00;;
19551;SDS011;9921;47.186;9.778;2023-10-09T02:02:03;0.00;;;0.00;;
19551;SDS011;9921;47.186;9.778;2023-10-09T02:04:39;0.00;;;0.00;;
19551;SDS011;9921;47.186;9.778;2023-10-09T02:07:06;0.00;;;0.00;;
19551;SDS011;9921;47.186;9.778;2023-10-09T02:09:35;0.00;;;0.00;;
19551;SDS011;9921;47.186;9.778;2023-10-09T02:12:10;0.00;;;0.00;;
19551;SDS011;9921;47.186;9.778;2023-10-09T02:14:37;0.00;;;0.00;;
19551;SDS011;9921;47.186;9.778;2023-10-09T02:17:06;0.00;;;0.00;;
19551;SDS011;9921;47.186;9.778;2023-10-09T02:19:42;0.00;;;0.00;;
19551;SDS011;9921;47.186;9.778;2023-10-09T02:22:13;0.00;;;0.00;;
19551;SDS011;9921;47.186;9.778;2023-10-09T02:24:42;0.00;;;0.00;;
19551;SDS011;9921;47.186;9.778;2023-10-09T02:27:17;0.00;;;0.00;;
19551;SDS011;9921;47.186;9.778;2023-10-09T02:30:09;0.00;;;0.00;;
19551;SDS011;9921;47.186;9.778;2023-10-09T02:32:43;0.00;;;0.00;;
19551;SDS011;9921;47.186;9.778;2023-10-09T02:35:14;0.00;;;0.00;;
19551;SDS011;9921;47.186;9.778;2023-10-09T02:38:01;0.00;;;0.00;;
19551;SDS011;9921;47.186;9.778;2023-10-09T02:40:33;0.00;;;0.00;;
19551;SDS011;9921;47.186;9.778;2023-10-09T02:43:06;0.00;;;0.00;;
19551;SDS011;9921;47.186;9.778;2023-10-09T02:45:37;0.00;;;0.00;;
19551;SDS011;9921;47.186;9.778;2023-10-09T02:48:15;0.00;;;0.00;;
19551;SDS011;9921;47.186;9.778;2023-10-09T02:50:44;0.00;;;0.00;;
19551;SDS011;9921;47.186;9.778;2023-10-09T02:53:12;0.00;;;0.00;;
19551;SDS011;9921;47.186;9.778;2023-10-09T02:55:45;0.00;;;0.00;;
19551;SDS011;9921;47.186;9.778;2023-10-09T02:58:29;0.00;;;0.00;;
19551;SDS011;9921;47.186;9.778;2023-10-09T03:00:57;0.00;;;0.00;;
19551;SDS011;9921;47.186;9.778;2023-10-09T03:03:24;0.00;;;0.00;;
19551;SDS011;9921;47.186;9.778;2023-10-09T03:05:53;0.00;;;0.00;;
19551;SDS011;9921;47.186;9.778;2023-10-09T03:08:20;0.00;;;0.00;;
19551;SDS011;9921;47.186;9.778;2023-10-09T03:10:48;0.00;;;0.00;;
19551;SDS011;9921;47.186;9.778;2023-10-09T03:13:15;0.00;;;0.00;;
19551;SDS011;9921;47.186;9.778;2023-10-09T03:15:45;0.00;;;0.00;;
19551;SDS011;9921;47.186;9.778;2023-10-09T03:18:13;0.00;;;0.00;;
19551;SDS011;9921;47.186;9.778;2023-10-09T03:20:40;0.00;;;0.00;;
19551;SDS011;9921;47.186;9.778;2023-10-09T03:23:09;0.00;;;0.00;;
19551;SDS011;9921;47.186;9.778;2023-10-09T03:25:39;0.00;;;0.00;;
19551;SDS011;9921;47.186;9.778;2023-10-09T03:28:11;0.00;;;0.00;;
19551;SDS011;9921;47.186;9.778;2023-10-09T03:30:40;0.00;;;0.00;;
19551;SDS011;9921;47.186;9.778;2023-10-09T03:33:12;0.00;;;0.00;;
19551;SDS011;9921;47.186;9.778;2023-10-09T03:35:40;0.00;;;0.00;;
19551;SDS011;9921;47.186;9.778;2023-10-09T03:38:08;0.00;;;0.00;;
19551;SDS011;9921;47.186;9.778;2023-10-09T03:40:41;0.00;;;0.00;;
19551;SDS011;9921;47.186;9.778;2023-10-09T03:43:08;0.00;;;0.00;;
19551;SDS011;9921;47.186;9.778;2023-10-09T03:45:38;0.00;;;0.00;;
19551;SDS011;9921;47.186;9.778;2023-10-09T03:48:10;0.00;;;0.00;;
19551;SDS011;9921;47.186;9.778;2023-10-09T03:50:45;0.00;;;0.00;;
19551;SDS011;9921;47.186;9.778;2023-10-09T03:53:13;0.00;;;0.00;;
19551;SDS011;9921;47.186;9.778;2023-10-09T03:55:40;0.00;;;0.00;;
19551;SDS011;9921;47.186;9.778;2023-10-09T03:58:07;0.00;;;0.00;;
19551;SDS011;9921;47.186;9.778;2023-10-09T04:00:38;0.00;;;0.00;;
19551;SDS011;9921;47.186;9.778;2023-10-09T04:03:10;0.00;;;0.00;;
19551;SDS011;9921;47.186;9.778;2023-10-09T04:05:39;0.00;;;0.00;;
19551;SDS011;9921;47.186;9.778;2023-10-09T04:08:09;0.00;;;0.00;;
19551;SDS011;9921;47.186;9.778;2023-10-09T04:10:45;0.00;;;0.00;;
19551;SDS011;9921;47.186;9.778;2023-10-09T04:13:17;0.00;;;0.00;;
19551;SDS011;9921;47.186;9.778;2023-10-09T04:15:49;0.00;;;0.00;;
19551;SDS011;9921;47.186;9.778;2023-10-09T04:18:18;0.00;;;0.00;;
19551;SDS011;9921;47.186;9.778;2023-10-09T04:20:53;0.00;;;0.00;;
19551;SDS011;9921;47.186;9.778;2023-10-09T04:23:38;0.00;;;0.00;;
19551;SDS011;9921;47.186;9.778;2023-10-09T04:26:25;0.00;;;0.00;;
19551;SDS011;9921;47.186;9.778;2023-10-09T04:28:51;0.00;;;0.00;;
19551;SDS011;9921;47.186;9.778;2023-10-09T04:31:20;0.00;;;0.00;;
19551;SDS011;9921;47.186;9.778;2023-10-09T04:33:56;0.00;;;0.00;;
19551;SDS011;9921;47.186;9.778;2023-10-09T04:36:47;0.00;;;0.00;;
19551;SDS011;9921;47.186;9.778;2023-10-09T04:39:16;0.00;;;0.00;;
19551;SDS011;9921;47.186;9.778;2023-10-09T04:42:00;0.00;;;0.00;;
19551;SDS011;9921;47.186;9.778;2023-10-09T04:45:01;0.00;;;0.00;;
19551;SDS011;9921;47.186;9.778;2023-10-09T04:48:02;0.00;;;0.00;;
19551;SDS011;9921;47.186;9.778;2023-10-09T04:50:33;0.00;;;0.00;;
19551;SDS011;9921;47.186;9.778;2023-10-09T04:53:31;0.00;;;0.00;;
19551;SDS011;9921;47.186;9.778;2023-10-09T04:56:04;0.00;;;0.00;;
19551;SDS011;9921;47.186;9.778;2023-10-09T04:58:40;0.00;;;0.00;;
19551;SDS011;9921;47.186;9.778;2023-10-09T05:01:08;0.00;;;0.00;;
19551;SDS011;9921;47.186;9.778;2023-10-09T05:04:02;0.00;;;0.00;;
19551;SDS011;9921;47.186;9.778;2023-10-09T05:06:49;0.00;;;0.00;;
19551;SDS011;9921;47.186;9.778;2023-10-09T05:09:22;0.00;;;0.00;;
19551;SDS011;9921;47.186;9.778;2023-10-09T05:11:49;0.00;;;0.00;;
19551;SDS011;9921;47.186;9.778;2023-10-09T05:14:34;0.00;;;0.00;;
19551;SDS011;9921;47.186;9.778;2023-10-09T05:17:04;0.00;;;0.00;;
19551;SDS011;9921;47.186;9.778;2023-10-09T05:19:35;0.00;;;0.00;;
19551;SDS011;9921;47.186;9.778;2023-10-09T05:22:08;0.00;;;0.00;;
19551;SDS011;9921;47.186;9.778;2023-10-09T05:24:54;0.00;;;0.00;;
19551;SDS011;9921;47.186;9.778;2023-10-09T05:27:20;0.00;;;0.00;;
19551;SDS011;9921;47.186;9.778;2023-10-09T05:30:10;0.00;;;0.00;;
19551;SDS011;9921;47.186;9.778;2023-10-09T05:32:50;0.00;;;0.00;;
19551;SDS011;9921;47.186;9.778;2023-10-09T05:35:22;0.00;;;0.00;;
19551;SDS011;9921;47.186;9.778;2023-10-09T05:38:04;0.00;;;0.00;;
19551;SDS011;9921;47.186;9.778;2023-10-09T05:40:49;0.00;;;0.00;;
19551;SDS011;9921;47.186;9.778;2023-10-09T05:43:19;0.00;;;0.00;;
19551;SDS011;9921;47.186;9.778;2023-10-09T05:46:00;0.00;;;0.00;;
19551;SDS011;9921;47.186;9.778;2023-10-09T05:48:34;0.00;;;0.00;;
19551;SDS011;9921;47.186;9.778;2023-10-09T05:51:21;0.00;;;0.00;;
19551;SDS011;9921;47.186;9.778;2023-10-09T05:54:05;0.00;;;0.00;;
19551;SDS011;9921;47.186;9.778;2023-10-09T05:56:48;0.00;;;0.00;;
19551;SDS011;9921;47.186;9.778;2023-10-09T05:59:33;0.00;;;0.00;;
19551;SDS011;9921;47.186;9.778;2023-10-09T06:02:17;0.00;;;0.00;;
19551;SDS011;9921;47.186;9.778;2023-10-09T06:04:58;0.00;;;0.00;;
19551;SDS011;9921;47.186;9.778;2023-10-09T06:07:31;0.00;;;0.00;;
19551;SDS011;9921;47.186;9.778;2023-10-09T06:10:26;0.00;;;0.00;;
19551;SDS011;9921;47.186;9.778;2023-10-09T06:13:04;0.00;;;0.00;;
19551;SDS011;9921;47.186;9.778;2023-10-09T06:15:36;0.00;;;0.00;;
19551;SDS011;9921;47.186;9.778;2023-10-09T06:18:26;0.00;;;0.00;;
19551;SDS011;9921;47.186;9.778;2023-10-09T06:20:58;0.00;;;0.00;;
19551;SDS011;9921;47.186;9.778;2023-10-09T06:23:52;0.00;;;0.00;;
19551;SDS011;9921;47.186;9.778;2023-10-09T06:26:36;0.00;;;0.00;;
19551;SDS011;9921;47.186;9.778;2023-10-09T06:29:06;0.00;;;0.00;;
19551;SDS011;9921;47.186;9.778;2023-10-09T06:31:55;0.00;;;0.00;;
19551;SDS011;9921;47.186;9.778;2023-10-09T06:34:41;0.00;;;0.00;;
19551;SDS011;9921;47.186;9.778;2023-10-09T06:37:10;0.00;;;0.00;;
19551;SDS011;9921;47.186;9.778;2023-10-09T06:40:00;0.00;;;0.00;;
19551;SDS011;9921;47.186;9.778;2023-10-09T06:43:08;0.00;;;0.00;;
19551;SDS011;9921;47.186;9.778;2023-10-09T06:45:37;0.00;;;0.00;;
19551;SDS011;9921;47.186;9.778;2023-10-09T06:48:10;0.00;;;0.00;;
19551;SDS011;9921;47.186;9.778;2023-10-09T06:50:51;0.00;;;0.00;;
19551;SDS011;9921;47.186;9.778;2023-10-09T06:53:29;0.00;;;0.00;;
19551;SDS011;9921;47.186;9.778;2023-10-09T06:56:11;0.00;;;0.00;;
19551;SDS011;9921;47.186;9.778;2023-10-09T06:58:48;0.00;;;0.00;;
19551;SDS011;9921;47.186;9.778;2023-10-09T07:01:14;0.00;;;0.00;;
19551;SDS011;9921;47.186;9.778;2023-10-09T07:03:54;0.00;;;0.00;;
19551;SDS011;9921;47.186;9.778;2023-10-09T07:06:25;0.00;;;0.00;;
19551;SDS011;9921;47.186;9.778;2023-10-09T07:09:06;0.00;;;0.00;;
19551;SDS011;9921;47.186;9.778;2023-10-09T07:11:46;0.00;;;0.00;;
19551;SDS011;9921;47.186;9.778;2023-10-09T07:14:23;0.00;;;0.00;;
19551;SDS011;9921;47.186;9.778;2023-10-09T07:17:13;0.00;;;0.00;;
19551;SDS011;9921;47.186;9.778;2023-10-09T07:19:47;0.00;;;0.00;;
19551;SDS011;9921;47.186;9.778;2023-10-09T07:22:35;0.00;;;0.00;;
19551;SDS011;9921;47.186;9.778;2023-10-09T07:25:17;0.00;;;0.00;;
19551;SDS011;9921;47.186;9.778;2023-10-09T07:28:07;0.00;;;0.00;;
19551;SDS011;9921;47.186;9.778;2023-10-09T07:30:54;0.00;;;0.00;;
19551;SDS011;9921;47.186;9.778;2023-10-09T07:33:24;0.00;;;0.00;;
19551;SDS011;9921;47.186;9.778;2023-10-09T07:36:16;0.00;;;0.00;;
19551;SDS011;9921;47.186;9.778;2023-10-09T07:38:54;0.00;;;0.00;;
19551;SDS011;9921;47.186;9.778;2023-10-09T07:41:29;0.00;;;0.00;;
19551;SDS011;9921;47.186;9.778;2023-10-09T07:44:04;0.00;;;0.00;;
19551;SDS011;9921;47.186;9.778;2023-10-09T07:46:52;0.00;;;0.00;;
19551;SDS011;9921;47.186;9.778;2023-10-09T07:49:38;0.00;;;0.00;;
19551;SDS011;9921;47.186;9.778;2023-10-09T07:52:04;0.00;;;0.00;;
19551;SDS011;9921;47.186;9.778;2023-10-09T07:54:31;0.00;;;0.00;;
19551;SDS011;9921;47.186;9.778;2023-10-09T07:56:58;0.00;;;0.00;;
19551;SDS011;9921;47.186;9.778;2023-10-09T07:59:35;0.00;;;0.00;;
19551;SDS011;9921;47.186;9.778;2023-10-09T08:02:06;0.00;;;0.00;;
19551;SDS011;9921;47.186;9.778;2023-10-09T08:04:38;0.00;;;0.00;;
19551;SDS011;9921;47.186;9.778;2023-10-09T08:07:13;0.00;;;0.00;;
19551;SDS011;9921;47.186;9.778;2023-10-09T08:09:50;0.00;;;0.00;;
19551;SDS011;9921;47.186;9.778;2023-10-09T08:12:37;0.00;;;0.00;;
19551;SDS011;9921;47.186;9.778;2023-10-09T08:15:22;0.00;;;0.00;;
19551;SDS011;9921;47.186;9.778;2023-10-09T08:17:53;0.00;;;0.00;;
19551;SDS011;9921;47.186;9.778;2023-10-09T08:20:24;0.00;;;0.00;;
19551;SDS011;9921;47.186;9.778;2023-10-09T08:22:51;0.00;;;0.00;;
19551;SDS011;9921;47.186;9.778;2023-10-09T08:25:21;0.00;;;0.00;;
19551;SDS011;9921;47.186;9.778;2023-10-09T08:27:55;0.00;;;0.00;;
19551;SDS011;9921;47.186;9.778;2023-10-09T08:30:24;0.00;;;0.00;;
19551;SDS011;9921;47.186;9.778;2023-10-09T08:33:06;0.00;;;0.00;;
19551;SDS011;9921;47.186;9.778;2023-10-09T08:35:46;0.00;;;0.00;;
19551;SDS011;9921;47.186;9.778;2023-10-09T08:38:14;0.00;;;0.00;;
19551;SDS011;9921;47.186;9.778;2023-10-09T08:40:48;0.00;;;0.00;;
19551;SDS011;9921;47.186;9.778;2023-10-09T08:43:16;0.10;;;0.10;;
19551;SDS011;9921;47.186;9.778;2023-10-09T08:45:46;0.00;;;0.00;;
19551;SDS011;9921;47.186;9.778;2023-10-09T08:48:17;0.10;;;0.10;;
19551;SDS011;9921;47.186;9.778;2023-10-09T08:50:45;0.00;;;0.00;;
19551;SDS011;9921;47.186;9.778;2023-10-09T08:53:13;0.10;;;0.10;;
19551;SDS011;9921;47.186;9.778;2023-10-09T08:55:41;0.10;;;0.10;;
19551;SDS011;9921;47.186;9.778;2023-10-09T08:58:09;0.10;;;0.10;;
19551;SDS011;9921;47.186;9.778;2023-10-09T09:00:41;0.10;;;0.10;;
19551;SDS011;9921;47.186;9.778;2023-10-09T09:03:12;0.20;;;0.20;;
19551;SDS011;9921;47.186;9.778;2023-10-09T09:05:41;0.13;;;0.13;;
19551;SDS011;9921;47.186;9.778;2023-10-09T09:08:20;0.20;;;0.20;;
19551;SDS011;9921;47.186;9.778;2023-10-09T09:10:51;0.10;;;0.10;;
19551;SDS011;9921;47.186;9.778;2023-10-09T09:13:25;0.20;;;0.20;;
19551;SDS011;9921;47.186;9.778;2023-10-09T09:15:56;0.20;;;0.20;;
19551;SDS011;9921;47.186;9.778;2023-10-09T09:18:25;0.20;;;0.20;;
19551;SDS011;9921;47.186;9.778;2023-10-09T09:20:57;0.30;;;0.30;;
19551;SDS011;9921;47.186;9.778;2023-10-09T09:23:24;0.20;;;0.20;;
19551;SDS011;9921;47.186;9.778;2023-10-09T09:25:52;0.20;;;0.20;;
19551;SDS011;9921;47.186;9.778;2023-10-09T09:28:24;0.20;;;0.20;;
19551;SDS011;9921;47.186;9.778;2023-10-09T09:31:03;0.20;;;0.20;;
19551;SDS011;9921;47.186;9.778;2023-10-09T09:33:39;0.20;;;0.20;;
19551;SDS011;9921;47.186;9.778;2023-10-09T09:36:07;0.20;;;0.20;;
19551;SDS011;9921;47.186;9.778;2023-10-09T09:38:36;0.20;;;0.20;;
19551;SDS011;9921;47.186;9.778;2023-10-09T09:41:14;0.20;;;0.20;;
19551;SDS011;9921;47.186;9.778;2023-10-09T09:43:50;0.20;;;0.20;;
19551;SDS011;9921;47.186;9.778;2023-10-09T09:46:21;0.30;;;0.30;;
19551;SDS011;9921;47.186;9.778;2023-10-09T09:48:54;0.30;;;0.30;;
19551;SDS011;9921;47.186;9.778;2023-10-09T09:51:25;0.30;;;0.30;;
19551;SDS011;9921;47.186;9.778;2023-10-09T09:53:54;0.30;;;0.30;;
19551;SDS011;9921;47.186;9.778;2023-10-09T09:56:23;0.30;;;0.30;;
19551;SDS011;9921;47.186;9.778;2023-10-09T09:58:51;0.38;;;0.38;;
19551;SDS011;9921;47.186;9.778;2023-10-09T10:01:23;0.30;;;0.30;;
19551;SDS011;9921;47.186;9.778;2023-10-09T10:03:54;0.38;;;0.38;;
19551;SDS011;9921;47.186;9.778;2023-10-09T10:06:25;0.30;;;0.30;;
19551;SDS011;9921;47.186;9.778;2023-10-09T10:08:57;0.40;;;0.40;;
19551;SDS011;9921;47.186;9.778;2023-10-09T10:14:17;0.40;;;0.40;;
19551;SDS011;9921;47.186;9.778;2023-10-09T10:17:00;0.40;;;0.40;;
19551;SDS011;9921;47.186;9.778;2023-10-09T10:25:42;0.40;;;0.40;;
19551;SDS011;9921;47.186;9.778;2023-10-09T10:28:18;0.40;;;0.40;;
19551;SDS011;9921;47.186;9.778;2023-10-09T10:31:01;0.35;;;0.35;;
19551;SDS011;9921;47.186;9.778;2023-10-09T10:33:40;0.30;;;0.30;;
19551;SDS011;9921;47.186;9.778;2023-10-09T10:36:33;0.30;;;0.30;;
19551;SDS011;9921;47.186;9.778;2023-10-09T10:39:01;0.32;;;0.32;;
19551;SDS011;9921;47.186;9.778;2023-10-09T10:41:32;0.30;;;0.30;;
19551;SDS011;9921;47.186;9.778;2023-10-09T10:44:02;0.30;;;0.30;;
19551;SDS011;9921;47.186;9.778;2023-10-09T10:46:58;0.30;;;0.30;;
19551;SDS011;9921;47.186;9.778;2023-10-09T10:49:26;0.30;;;0.30;;
19551;SDS011;9921;47.186;9.778;2023-10-09T10:52:03;0.30;;;0.30;;
19551;SDS011;9921;47.186;9.778;2023-10-09T10:54:42;0.30;;;0.30;;
19551;SDS011;9921;47.186;9.778;2023-10-09T10:57:14;0.20;;;0.20;;
19551;SDS011;9921;47.186;9.778;2023-10-09T10:59:55;0.20;;;0.20;;
19551;SDS011;9921;47.186;9.778;2023-10-09T11:02:37;0.20;;;0.20;;
19551;SDS011;9921;47.186;9.778;2023-10-09T11:05:05;0.20;;;0.20;;
19551;SDS011;9921;47.186;9.778;2023-10-09T11:07:50;0.20;;;0.20;;
19551;SDS011;9921;47.186;9.778;2023-10-09T11:10:21;0.20;;;0.20;;
19551;SDS011;9921;47.186;9.778;2023-10-09T11:12:56;0.10;;;0.10;;
19551;SDS011;9921;47.186;9.778;2023-10-09T11:15:46;0.20;;;0.20;;
19551;SDS011;9921;47.186;9.778;2023-10-09T11:18:22;0.17;;;0.17;;
19551;SDS011;9921;47.186;9.778;2023-10-09T11:20:51;0.20;;;0.20;;
19551;SDS011;9921;47.186;9.778;2023-10-09T11:23:42;0.10;;;0.10;;
19551;SDS011;9921;47.186;9.778;2023-10-09T11:26:18;0.20;;;0.20;;
19551;SDS011;9921;47.186;9.778;2023-10-09T11:29:05;0.10;;;0.10;;
19551;SDS011;9921;47.186;9.778;2023-10-09T11:31:38;0.10;;;0.10;;
19551;SDS011;9921;47.186;9.778;2023-10-09T11:34:08;0.17;;;0.17;;
19551;SDS011;9921;47.186;9.778;2023-10-09T11:36:54;0.17;;;0.17;;
19551;SDS011;9921;47.186;9.778;2023-10-09T11:39:26;0.20;;;0.20;;
19551;SDS011;9921;47.186;9.778;2023-10-09T11:42:01;0.20;;;0.20;;
19551;SDS011;9921;47.186;9.778;2023-10-09T11:44:37;0.10;;;0.10;;
19551;SDS011;9921;47.186;9.778;2023-10-09T11:47:05;0.10;;;0.10;;
19551;SDS011;9921;47.186;9.778;2023-10-09T11:49:48;0.20;;;0.20;;
19551;SDS011;9921;47.186;9.778;2023-10-09T11:52:21;0.20;;;0.20;;
19551;SDS011;9921;47.186;9.778;2023-10-09T11:55:05;0.17;;;0.17;;
19551;SDS011;9921;47.186;9.778;2023-10-09T11:57:32;0.20;;;0.20;;
19551;SDS011;9921;47.186;9.778;2023-10-09T12:00:00;0.20;;;0.20;;
19551;SDS011;9921;47.186;9.778;2023-10-09T12:02:36;0.20;;;0.20;;
19551;SDS011;9921;47.186;9.778;2023-10-09T12:05:09;0.20;;;0.20;;
19551;SDS011;9921;47.186;9.778;2023-10-09T12:07:42;0.20;;;0.20;;
19551;SDS011;9921;47.186;9.778;2023-10-09T12:10:11;0.20;;;0.20;;
19551;SDS011;9921;47.186;9.778;2023-10-09T12:12:49;0.20;;;0.20;;
19551;SDS011;9921;47.186;9.778;2023-10-09T12:15:16;0.20;;;0.20;;
19551;SDS011;9921;47.186;9.778;2023-10-09T12:17:44;0.20;;;0.20;;
19551;SDS011;9921;47.186;9.778;2023-10-09T12:20:12;0.20;;;0.20;;
19551;SDS011;9921;47.186;9.778;2023-10-09T12:22:55;0.20;;;0.20;;
19551;SDS011;9921;47.186;9.778;2023-10-09T12:25:24;0.20;;;0.20;;
19551;SDS011;9921;47.186;9.778;2023-10-09T12:27:51;0.17;;;0.17;;
19551;SDS011;9921;47.186;9.778;2023-10-09T12:30:22;0.20;;;0.20;;
19551;SDS011;9921;47.186;9.778;2023-10-09T12:32:52;0.10;;;0.10;;
19551;SDS011;9921;47.186;9.778;2023-10-09T12:35:20;0.20;;;0.20;;
19551;SDS011;9921;47.186;9.778;2023-10-09T12:37:48;0.13;;;0.13;;
19551;SDS011;9921;47.186;9.778;2023-10-09T12:40:16;0.20;;;0.20;;
19551;SDS011;9921;47.186;9.778;2023-10-09T12:42:50;0.20;;;0.20;;
19551;SDS011;9921;47.186;9.778;2023-10-09T12:45:20;0.10;;;0.10;;
19551;SDS011;9921;47.186;9.778;2023-10-09T12:47:51;0.10;;;0.10;;
19551;SDS011;9921;47.186;9.778;2023-10-09T12:50:19;0.13;;;0.13;;
19551;SDS011;9921;47.186;9.778;2023-10-09T12:52:53;0.10;;;0.10;;
19551;SDS011;9921;47.186;9.778;2023-10-09T12:55:27;0.10;;;0.10;;
19551;SDS011;9921;47.186;9.778;2023-10-09T12:57:58;0.10;;;0.10;;
19551;SDS011;9921;47.186;9.778;2023-10-09T13:00:29;0.10;;;0.10;;
19551;SDS011;9921;47.186;9.778;2023-10-09T13:02:57;0.10;;;0.10;;
19551;SDS011;9921;47.186;9.778;2023-10-09T13:05:26;0.10;;;0.10;;
19551;SDS011;9921;47.186;9.778;2023-10-09T13:07:53;0.10;;;0.10;;
19551;SDS011;9921;47.186;9.778;2023-10-09T13:10:21;0.13;;;0.13;;
19551;SDS011;9921;47.186;9.778;2023-10-09T13:12:49;0.17;;;0.17;;
19551;SDS011;9921;47.186;9.778;2023-10-09T13:15:22;0.10;;;0.10;;
19551;SDS011;9921;47.186;9.778;2023-10-09T13:17:49;0.10;;;0.10;;
19551;SDS011;9921;47.186;9.778;2023-10-09T13:20:18;0.13;;;0.13;;
19551;SDS011;9921;47.186;9.778;2023-10-09T13:22:46;0.10;;;0.10;;
19551;SDS011;9921;47.186;9.778;2023-10-09T13:25:14;0.10;;;0.10;;
19551;SDS011;9921;47.186;9.778;2023-10-09T13:27:42;0.10;;;0.10;;
19551;SDS011;9921;47.186;9.778;2023-10-09T13:30:15;0.10;;;0.10;;
19551;SDS011;9921;47.186;9.778;2023-10-09T13:32:48;0.10;;;0.10;;
19551;SDS011;9921;47.186;9.778;2023-10-09T13:35:16;0.10;;;0.10;;
19551;SDS011;9921;47.186;9.778;2023-10-09T13:37:44;0.20;;;0.20;;
19551;SDS011;9921;47.186;9.778;2023-10-09T13:40:19;0.10;;;0.10;;
19551;SDS011;9921;47.186;9.778;2023-10-09T13:42:52;0.15;;;0.15;;
19551;SDS011;9921;47.186;9.778;2023-10-09T13:45:24;0.20;;;0.20;;
19551;SDS011;9921;47.186;9.778;2023-10-09T13:47:56;0.10;;;0.10;;
19551;SDS011;9921;47.186;9.778;2023-10-09T13:50:23;0.20;;;0.20;;
19551;SDS011;9921;47.186;9.778;2023-10-09T13:52:54;0.10;;;0.10;;
19551;SDS011;9921;47.186;9.778;2023-10-09T13:55:21;0.10;;;0.10;;
19551;SDS011;9921;47.186;9.778;2023-10-09T13:57:56;0.20;;;0.20;;
19551;SDS011;9921;47.186;9.778;2023-10-09T14:00:23;0.10;;;0.10;;
19551;SDS011;9921;47.186;9.778;2023-10-09T14:03:00;0.10;;;0.10;;
19551;SDS011;9921;47.186;9.778;2023-10-09T14:05:36;0.10;;;0.10;;
19551;SDS011;9921;47.186;9.778;2023-10-09T14:08:16;0.17;;;0.17;;
19551;SDS011;9921;47.186;9.778;2023-10-09T14:10:48;0.10;;;0.10;;
19551;SDS011;9921;47.186;9.778;2023-10-09T14:13:15;0.10;;;0.10;;
19551;SDS011;9921;47.186;9.778;2023-10-09T14:15:50;0.15;;;0.15;;
19551;SDS011;9921;47.186;9.778;2023-10-09T14:18:20;0.10;;;0.10;;
19551;SDS011;9921;47.186;9.778;2023-10-09T14:20:47;0.10;;;0.10;;
19551;SDS011;9921;47.186;9.778;2023-10-09T14:23:15;0.10;;;0.10;;
19551;SDS011;9921;47.186;9.778;2023-10-09T14:25:45;0.10;;;0.10;;
19551;SDS011;9921;47.186;9.778;2023-10-09T14:28:14;0.10;;;0.10;;
19551;SDS011;9921;47.186;9.778;2023-10-09T14:30:44;0.10;;;0.10;;
19551;SDS011;9921;47.186;9.778;2023-10-09T14:33:14;0.10;;;0.10;;
19551;SDS011;9921;47.186;9.778;2023-10-09T14:35:49;0.13;;;0.13;;
19551;SDS011;9921;47.186;9.778;2023-10-09T14:38:17;0.10;;;0.10;;
19551;SDS011;9921;47.186;9.778;2023-10-09T14:40:51;0.10;;;0.10;;
19551;SDS011;9921;47.186;9.778;2023-10-09T14:43:22;0.10;;;0.10;;
19551;SDS011;9921;47.186;9.778;2023-10-09T14:45:53;0.10;;;0.10;;
19551;SDS011;9921;47.186;9.778;2023-10-09T14:48:21;0.10;;;0.10;;
19551;SDS011;9921;47.186;9.778;2023-10-09T14:50:52;0.10;;;0.10;;
19551;SDS011;9921;47.186;9.778;2023-10-09T14:53:19;0.10;;;0.10;;
19551;SDS011;9921;47.186;9.778;2023-10-09T14:55:53;0.10;;;0.10;;
19551;SDS011;9921;47.186;9.778;2023-10-09T14:58:20;0.10;;;0.10;;
19551;SDS011;9921;47.186;9.778;2023-10-09T15:00:50;0.10;;;0.10;;
19551;SDS011;9921;47.186;9.778;2023-10-09T15:03:18;0.10;;;0.10;;
19551;SDS011;9921;47.186;9.778;2023-10-09T15:05:45;0.10;;;0.10;;
19551;SDS011;9921;47.186;9.778;2023-10-09T15:08:13;0.00;;;0.00;;
19551;SDS011;9921;47.186;9.778;2023-10-09T15:10:44;0.00;;;0.00;;
19551;SDS011;9921;47.186;9.778;2023-10-09T15:13:12;0.00;;;0.00;;
19551;SDS011;9921;47.186;9.778;2023-10-09T15:15:41;0.00;;;0.00;;
19551;SDS011;9921;47.186;9.778;2023-10-09T15:18:08;0.00;;;0.00;;
19551;SDS011;9921;47.186;9.778;2023-10-09T15:20:37;0.08;;;0.08;;
19551;SDS011;9921;47.186;9.778;2023-10-09T15:23:04;0.10;;;0.10;;
19551;SDS011;9921;47.186;9.778;2023-10-09T15:25:33;0.10;;;0.10;;
19551;SDS011;9921;47.186;9.778;2023-10-09T15:28:00;0.10;;;0.10;;
19551;SDS011;9921;47.186;9.778;2023-10-09T15:30:28;0.00;;;0.00;;
19551;SDS011;9921;47.186;9.778;2023-10-09T15:32:56;0.10;;;0.10;;
19551;SDS011;9921;47.186;9.778;2023-10-09T15:35:23;0.00;;;0.00;;
19551;SDS011;9921;47.186;9.778;2023-10-09T15:37:50;0.08;;;0.08;;
19551;SDS011;9921;47.186;9.778;2023-10-09T15:40:18;0.00;;;0.00;;
19551;SDS011;9921;47.186;9.778;2023-10-09T15:42:51;0.10;;;0.10;;
19551;SDS011;9921;47.186;9.778;2023-10-09T15:45:21;0.00;;;0.00;;
19551;SDS011;9921;47.186;9.778;2023-10-09T15:47:49;0.00;;;0.00;;